Time;durP1;ratioP1;P1;durP2;ratioP2;P2;SDS_P1;SDS_P2;PMS_P1;PMS_P2;Temp;Humidity;BMP_temperature;BMP_pressure;BME280_temperature;BME280_humidity;BME280_pressure;Samples;Min_cycle;Max_cycle;Signal;HPM_P1;HPM_P2
2022/03/17 00:01:59;;;;;;;50.37;25.00;;;;;;;0.66;88.40;96560.66;1692364;85;21058;-67
2022/03/17 00:04:26;;;;;;;39.03;18.87;;;;;;;0.71;88.14;96563.87;1675824;86;21027;-68
2022/03/17 00:06:52;;;;;;;53.07;25.27;;;;;;;0.55;88.83;96558.95;1675950;86;21070;-67
2022/03/17 00:09:19;;;;;;;50.70;24.90;;;;;;;0.58;88.78;96559.06;1675681;86;21035;-67
2022/03/17 00:11:45;;;;;;;53.07;24.67;;;;;;;0.59;88.79;96569.52;1689071;85;21054;-67
2022/03/17 00:14:12;;;;;;;49.10;25.23;;;;;;;0.60;88.65;96574.29;1644540;87;21009;-67
2022/03/17 00:16:38;;;;;;;49.43;23.63;;;;;;;0.47;88.60;96572.09;1692406;85;21061;-67
2022/03/17 00:19:07;;;;;;;50.80;25.03;;;;;;;0.43;88.77;96580.20;1689088;85;21021;-67
2022/03/17 00:21:36;;;;;;;45.87;23.20;;;;;;;0.45;88.69;96582.83;1644588;87;21085;-67
2022/03/17 00:24:07;;;;;;;44.53;22.87;;;;;;;0.46;88.74;96583.32;1692369;85;21002;-67
2022/03/17 00:26:35;;;;;;;44.47;20.90;;;;;;;0.46;88.78;96579.42;1689256;84;20982;-67
2022/03/17 00:29:03;;;;;;;35.27;18.47;;;;;;;0.46;88.79;96589.39;1644621;87;21064;-67
2022/03/17 00:31:30;;;;;;;39.17;20.37;;;;;;;0.42;88.77;96593.57;1692365;85;21015;-67
2022/03/17 00:33:57;;;;;;;43.43;21.90;;;;;;;0.33;89.19;96588.48;1675936;86;21022;-67
2022/03/17 00:36:23;;;;;;;35.87;18.73;;;;;;;0.39;89.19;96588.69;1659963;86;21536;-67
2022/03/17 00:38:50;;;;;;;34.73;17.47;;;;;;;0.37;89.14;96586.45;1688914;85;21042;-67
2022/03/17 00:41:16;;;;;;;32.33;17.17;;;;;;;0.36;89.18;96591.19;1644523;87;21035;-67
2022/03/17 00:43:43;;;;;;;38.93;19.13;;;;;;;0.19;89.47;96587.53;1692497;85;21074;-67
2022/03/17 00:46:10;;;;;;;45.27;21.87;;;;;;;0.19;89.67;96586.66;1676002;86;21058;-67
2022/03/17 00:48:36;;;;;;;55.20;24.97;;;;;;;0.23;89.72;96584.66;1668079;86;21167;-67
2022/03/17 00:51:03;;;;;;;48.30;23.87;;;;;;;0.24;89.79;96589.01;1689005;85;21029;-67
2022/03/17 00:53:30;;;;;;;39.93;20.70;;;;;;;0.24;89.90;96592.02;1666423;86;21060;-68
2022/03/17 00:55:56;;;;;;;39.73;20.80;;;;;;;0.27;89.73;96585.64;1663313;85;21094;-67
2022/03/17 00:58:23;;;;;;;45.77;21.90;;;;;;;0.21;89.70;96579.81;1671405;85;21076;-67
2022/03/17 01:00:49;;;;;;;38.67;20.10;;;;;;;0.22;89.82;96588.06;1695398;85;21026;-67
2022/03/17 01:03:16;;;;;;;42.50;21.00;;;;;;;0.29;89.76;96583.58;1695468;85;21084;-67
2022/03/17 01:05:43;;;;;;;43.10;20.93;;;;;;;0.32;89.64;96581.08;1695421;84;21078;-67
2022/03/17 01:08:09;;;;;;;40.93;22.30;;;;;;;0.34;89.51;96583.33;1695441;85;21054;-67
2022/03/17 01:10:38;;;;;;;42.80;22.63;;;;;;;0.42;89.45;96585.78;1695403;84;21018;-68
2022/03/17 01:13:06;;;;;;;42.23;21.17;;;;;;;0.47;89.49;96576.86;1695603;85;21536;-67
2022/03/17 01:15:32;;;;;;;41.10;20.77;;;;;;;0.54;89.42;96578.86;1695279;85;21524;-67
2022/03/17 01:17:59;;;;;;;35.80;18.43;;;;;;;0.58;88.97;96575.55;1695413;84;21034;-67
2022/03/17 01:20:26;;;;;;;37.20;19.93;;;;;;;0.52;88.46;96568.83;1695215;85;21003;-67
2022/03/17 01:22:52;;;;;;;43.03;20.87;;;;;;;0.51;88.22;96568.79;1695394;85;21519;-67
2022/03/17 01:25:19;;;;;;;39.70;18.90;;;;;;;0.52;88.06;96564.05;1695441;85;21086;-67
2022/03/17 01:27:45;;;;;;;34.17;19.17;;;;;;;0.49;87.81;96571.31;1695403;85;21015;-67
2022/03/17 01:30:12;;;;;;;40.13;21.53;;;;;;;0.55;88.10;96574.13;1695388;85;20979;-67
2022/03/17 01:32:40;;;;;;;41.73;20.37;;;;;;;0.52;87.73;96575.31;1695412;84;21018;-67
2022/03/17 01:35:09;;;;;;;36.70;19.10;;;;;;;0.47;87.52;96577.28;1695380;85;21035;-67
2022/03/17 01:37:36;;;;;;;39.13;19.50;;;;;;;0.38;87.39;96581.33;1695492;84;21018;-67
2022/03/17 01:40:04;;;;;;;37.17;19.00;;;;;;;0.38;87.51;96586.94;1695349;85;21038;-67
2022/03/17 01:42:30;;;;;;;29.90;17.00;;;;;;;0.35;87.38;96582.52;1695397;84;20994;-67
2022/03/17 01:44:57;;;;;;;32.37;17.97;;;;;;;0.34;87.19;96584.63;1695380;84;21038;-67
2022/03/17 01:47:29;;;;;;;34.67;18.63;;;;;;;0.36;87.22;96589.47;1695440;84;21054;-67
2022/03/17 01:49:59;;;;;;;32.23;18.63;;;;;;;0.43;87.43;96597.95;1695444;84;21025;-67
2022/03/17 01:52:26;;;;;;;35.90;19.40;;;;;;;0.43;86.79;96599.67;1695385;84;21050;-67
2022/03/17 01:54:53;;;;;;;33.47;19.83;;;;;;;0.47;86.85;96598.94;1695186;85;21062;-67
2022/03/17 01:57:22;;;;;;;32.73;18.07;;;;;;;0.42;86.67;96601.78;1667956;85;21031;-67
2022/03/17 01:59:50;;;;;;;28.93;15.47;;;;;;;0.32;86.50;96604.87;1695335;84;21027;-67
2022/03/17 02:02:17;;;;;;;38.07;20.00;;;;;;;0.18;86.33;96606.96;1695379;84;21070;-67
2022/03/17 02:04:46;;;;;;;34.23;18.97;;;;;;;0.12;86.49;96610.61;1695417;85;21014;-67
2022/03/17 02:07:14;;;;;;;34.40;18.07;;;;;;;0.07;86.47;96610.84;1695522;85;21007;-66
2022/03/17 02:09:43;;;;;;;36.13;20.37;;;;;;;-0.01;86.57;96611.43;1695244;85;21058;-67
2022/03/17 02:15:00;;;;;;;34.73;18.60;;;;;;;-0.26;87.01;96616.50;1695412;85;21489;-67
2022/03/17 02:17:31;;;;;;;36.03;19.47;;;;;;;-0.19;86.98;96618.52;1695518;84;21063;-67
2022/03/17 02:20:03;;;;;;;34.23;18.50;;;;;;;-0.25;86.95;96615.69;1695413;85;21026;-67
2022/03/17 02:22:30;;;;;;;27.23;13.50;;;;;;;-0.30;87.19;96621.11;1695363;85;21038;-67
2022/03/17 02:27:46;;;;;;;38.53;20.43;;;;;;;-0.37;87.74;96622.56;1695499;85;21002;-67
2022/03/17 02:30:18;;;;;;;29.07;17.17;;;;;;;-0.32;88.03;96617.56;1695398;85;21473;-67
2022/03/17 02:32:46;;;;;;;35.60;16.30;;;;;;;-0.34;87.70;96620.50;1695427;84;21047;-67
2022/03/17 02:35:20;;;;;;;30.90;15.73;;;;;;;-0.39;88.01;96622.03;1695349;85;21034;-67
2022/03/17 02:37:46;;;;;;;32.03;16.47;;;;;;;-0.44;88.07;96633.09;1695464;85;21477;-67
2022/03/17 02:40:13;;;;;;;37.60;19.53;;;;;;;-0.52;88.63;96639.68;1695225;84;21031;-67
2022/03/17 02:42:40;;;;;;;24.17;13.23;;;;;;;-0.48;88.25;96640.29;1695456;84;21564;-67
2022/03/17 02:45:12;;;;;;;30.77;16.50;;;;;;;-0.47;88.13;96648.95;1695291;85;21022;-67
2022/03/17 02:47:42;;;;;;;36.83;19.17;;;;;;;-0.47;88.23;96651.12;1695466;85;21308;-67
2022/03/17 02:50:13;;;;;;;31.63;16.07;;;;;;;-0.50;88.87;96652.72;1695351;85;21034;-67
2022/03/17 02:52:40;;;;;;;28.20;13.87;;;;;;;-0.50;88.47;96660.08;1696353;84;21094;-66
2022/03/17 02:55:11;;;;;;;29.10;14.50;;;;;;;-0.54;88.81;96658.58;1698142;84;21038;-66
2022/03/17 02:57:39;;;;;;;28.13;14.30;;;;;;;-0.50;88.79;96663.97;1698575;84;21011;-67
2022/03/17 03:00:10;;;;;;;38.73;21.00;;;;;;;-0.51;88.70;96660.00;1698239;84;21552;-67
2022/03/17 03:02:38;;;;;;;20.47;12.27;;;;;;;-0.57;88.99;96664.95;1698365;84;20994;-67
2022/03/17 03:05:06;;;;;;;37.47;19.73;;;;;;;-0.60;88.91;96667.00;1698778;84;21030;-67
2022/03/17 03:07:34;;;;;;;38.70;21.67;;;;;;;-0.62;88.83;96666.47;1698302;84;21034;-67
2022/03/17 03:10:01;;;;;;;31.47;16.10;;;;;;;-0.64;88.98;96671.98;1698346;84;21031;-67
2022/03/17 03:12:27;;;;;;;29.60;15.33;;;;;;;-0.66;89.06;96676.71;1698462;84;21539;-67
2022/03/17 03:14:54;;;;;;;41.27;20.50;;;;;;;-0.77;89.49;96680.54;1698425;84;21022;-67
2022/03/17 03:17:25;;;;;;;28.27;16.30;;;;;;;-0.72;89.04;96684.63;1698342;84;20999;-67
2022/03/17 03:19:49;;;;;;;41.53;21.37;;;;;;;-0.81;89.68;96692.87;1697999;84;21047;-67
2022/03/17 03:22:17;;;;;;;38.13;20.30;;;;;;;-0.75;89.31;96694.45;1698229;84;21513;-67
2022/03/17 03:24:45;;;;;;;43.77;23.13;;;;;;;-0.74;89.47;96701.39;1698231;84;21030;-67
2022/03/17 03:27:12;;;;;;;34.47;18.77;;;;;;;-0.72;89.87;96704.06;1698350;84;21500;-66
2022/03/17 03:29:39;;;;;;;29.57;16.70;;;;;;;-0.78;89.89;96705.99;1698318;84;21047;-67
2022/03/17 03:32:07;;;;;;;30.97;16.50;;;;;;;-0.73;89.78;96699.30;1698294;84;21026;-67
2022/03/17 03:34:34;;;;;;;34.93;18.27;;;;;;;-0.77;89.81;96700.39;1698374;84;21549;-67
2022/03/17 03:39:46;;;;;;;30.93;16.20;;;;;;;-0.79;89.80;96705.91;1698275;84;20999;-67
2022/03/17 03:42:12;;;;;;;38.07;19.57;;;;;;;-0.81;89.78;96712.73;1698331;84;21053;-67
2022/03/17 03:44:39;;;;;;;35.93;19.07;;;;;;;-0.76;89.53;96722.47;1698352;84;21034;-67
2022/03/17 03:47:07;;;;;;;37.60;21.03;;;;;;;-0.77;89.39;96722.00;1698471;84;21019;-67
2022/03/17 03:49:34;;;;;;;39.03;20.83;;;;;;;-0.75;89.72;96728.14;1698380;84;21501;-67
2022/03/17 03:52:00;;;;;;;42.93;21.77;;;;;;;-0.71;89.71;96726.14;1698526;84;20990;-67
2022/03/17 03:54:28;;;;;;;41.93;21.90;;;;;;;-0.69;89.70;96728.81;1695158;84;21830;-68
2022/03/17 03:56:57;;;;;;;34.53;20.93;;;;;;;-0.71;89.84;96734.33;1695350;84;21011;-67
2022/03/17 03:59:28;;;;;;;35.00;18.57;;;;;;;-0.66;89.55;96735.41;1695483;84;21070;-67
2022/03/17 04:01:59;;;;;;;35.40;19.03;;;;;;;-0.59;89.33;96736.16;1695549;85;21074;-67
2022/03/17 04:04:27;;;;;;;38.13;21.37;;;;;;;-0.65;89.12;96742.39;1694689;84;21022;-67
2022/03/17 04:06:58;;;;;;;35.63;19.97;;;;;;;-0.64;88.82;96744.56;1695511;85;21030;-66
2022/03/17 04:09:28;;;;;;;36.87;22.43;;;;;;;-0.63;88.93;96745.94;1695162;85;21047;-67
2022/03/17 04:11:55;;;;;;;29.43;17.90;;;;;;;-0.57;88.69;96751.78;1695256;85;21003;-67
2022/03/17 04:14:23;;;;;;;37.27;20.63;;;;;;;-0.59;88.48;96753.00;1695477;84;21509;-67
2022/03/17 04:16:51;;;;;;;34.43;18.70;;;;;;;-0.52;88.65;96761.94;1695493;85;21094;-66
2022/03/17 04:19:17;;;;;;;39.97;20.10;;;;;;;-0.55;88.13;96764.41;1695466;84;21525;-66
2022/03/17 04:21:46;;;;;;;36.73;21.60;;;;;;;-0.53;87.90;96773.11;1695532;85;21022;-65
2022/03/17 04:24:14;;;;;;;38.17;21.23;;;;;;;-0.51;87.75;96768.88;1695503;85;20987;-70
2022/03/17 04:26:41;;;;;;;48.13;24.03;;;;;;;-0.46;87.71;96768.67;1695445;85;21034;-69
2022/03/17 04:29:09;;;;;;;37.83;19.83;;;;;;;-0.56;87.62;96771.69;1695574;84;21493;-69
2022/03/17 04:31:39;;;;;;;39.83;21.83;;;;;;;-0.60;87.47;96779.76;1695415;84;20987;-69
2022/03/17 04:34:07;;;;;;;35.03;18.27;;;;;;;-0.65;87.41;96777.37;1695356;85;21070;-68
2022/03/17 04:36:34;;;;;;;35.40;20.27;;;;;;;-0.67;87.31;96785.08;1695442;85;21030;-68
2022/03/17 04:39:03;;;;;;;38.63;22.17;;;;;;;-0.66;87.32;96775.20;1695263;85;21488;-69
2022/03/17 04:41:29;;;;;;;39.43;21.57;;;;;;;-0.60;87.42;96784.95;1695340;84;21085;-69
2022/03/17 04:43:56;;;;;;;42.30;21.53;;;;;;;-0.58;87.43;96790.17;1695518;84;21062;-69
2022/03/17 04:46:23;;;;;;;50.03;25.70;;;;;;;-0.63;87.17;96787.41;1695320;85;21065;-69
2022/03/17 04:48:49;;;;;;;28.47;16.37;;;;;;;-0.64;87.19;96783.44;1695423;85;21557;-69
2022/03/17 04:51:16;;;;;;;32.20;15.57;;;;;;;-0.61;86.90;96792.64;1695499;85;20987;-69
2022/03/17 04:53:43;;;;;;;27.47;15.47;;;;;;;-0.72;86.38;96794.77;1705760;84;21052;-69
2022/03/17 04:56:14;;;;;;;37.37;20.37;;;;;;;-0.77;86.26;96801.45;1716128;84;21040;-69
2022/03/17 04:58:42;;;;;;;57.80;30.83;;;;;;;-0.83;86.49;96809.85;1716463;84;21065;-69
2022/03/17 05:01:12;;;;;;;31.33;18.07;;;;;;;-0.78;86.82;96810.03;1716045;84;21020;-69
2022/03/17 05:03:39;;;;;;;38.37;18.87;;;;;;;-0.78;86.61;96813.91;1715874;84;21124;-69
2022/03/17 05:06:06;;;;;;;24.27;15.73;;;;;;;-0.76;86.66;96815.76;1716051;84;21522;-69
2022/03/17 05:08:36;;;;;;;26.83;17.27;;;;;;;-0.68;87.03;96813.13;1715813;84;21013;-69
2022/03/17 05:11:03;;;;;;;23.70;12.20;;;;;;;-0.66;86.64;96825.75;1716095;84;21001;-69
2022/03/17 05:13:31;;;;;;;27.57;17.60;;;;;;;-0.68;86.24;96829.05;1715746;84;21029;-69
2022/03/17 05:15:59;;;;;;;34.97;20.37;;;;;;;-0.77;85.85;96829.55;1716179;84;21051;-69
2022/03/17 05:18:26;;;;;;;29.83;17.60;;;;;;;-0.74;86.06;96832.27;1715814;84;21057;-69
2022/03/17 05:20:53;;;;;;;22.10;13.67;;;;;;;-0.76;85.92;96832.60;1716117;84;21514;-69
2022/03/17 05:23:21;;;;;;;24.87;14.23;;;;;;;-0.75;85.81;96830.92;1715765;84;21026;-69
2022/03/17 05:25:51;;;;;;;26.40;14.93;;;;;;;-0.71;85.91;96834.11;1716143;84;21542;-69
2022/03/17 05:28:18;;;;;;;26.63;15.13;;;;;;;-0.66;85.74;96836.11;1715761;84;21029;-68
2022/03/17 05:30:46;;;;;;;20.37;12.20;;;;;;;-0.63;85.50;96834.06;1715840;83;21594;-69
2022/03/17 05:33:13;;;;;;;28.40;16.47;;;;;;;-0.65;84.95;96835.70;1715792;84;21022;-69
2022/03/17 05:35:43;;;;;;;26.37;14.53;;;;;;;-0.65;84.90;96842.17;1715906;83;21163;-69
2022/03/17 05:38:10;;;;;;;24.90;14.53;;;;;;;-0.67;84.78;96844.69;1715826;84;21014;-69
2022/03/17 05:40:37;;;;;;;33.67;18.23;;;;;;;-0.70;84.85;96847.15;1715981;84;21005;-69
2022/03/17 05:43:07;;;;;;;30.40;17.07;;;;;;;-0.68;85.70;96845.52;1715598;84;21037;-69
2022/03/17 05:45:35;;;;;;;34.33;20.00;;;;;;;-0.61;85.62;96851.84;1716114;84;21550;-69
2022/03/17 05:48:05;;;;;;;39.70;20.27;;;;;;;-0.55;86.19;96845.66;1715786;84;21126;-69
2022/03/17 05:50:38;;;;;;;47.47;22.20;;;;;;;-0.45;86.33;96837.87;1716056;84;20992;-69
2022/03/17 05:53:06;;;;;;;43.43;21.60;;;;;;;-0.34;86.19;96840.92;1713240;84;21540;-69
2022/03/17 05:55:33;;;;;;;42.13;23.37;;;;;;;-0.35;86.43;96840.05;1695235;84;21086;-69
2022/03/17 05:58:01;;;;;;;53.47;26.17;;;;;;;-0.33;86.22;96844.89;1695044;85;21038;-70
2022/03/17 06:00:29;;;;;;;44.73;23.27;;;;;;;-0.23;86.28;96840.58;1694161;84;21013;-75
2022/03/17 06:02:57;;;;;;;22.13;12.23;;;;;;;-0.16;86.65;96841.70;1693912;85;21330;-69
2022/03/17 06:05:25;;;;;;;38.03;21.67;;;;;;;-0.17;86.42;96843.84;1672341;85;20987;-80
2022/03/17 06:07:55;;;;;;;51.43;28.60;;;;;;;-0.08;86.46;96844.63;1687448;84;21021;-67
2022/03/17 06:10:26;;;;;;;37.57;21.63;;;;;;;0.00;86.37;96849.75;1700032;84;21057;-66
2022/03/17 06:12:55;;;;;;;42.27;22.80;;;;;;;0.02;85.87;96842.89;1699874;83;21074;-67
2022/03/17 06:15:23;;;;;;;42.00;23.90;;;;;;;0.03;85.87;96847.70;1699397;83;21066;-70
2022/03/17 06:17:54;;;;;;;44.13;25.77;;;;;;;0.01;85.89;96855.41;1700062;84;21532;-67
2022/03/17 06:20:24;;;;;;;43.53;25.87;;;;;;;0.13;86.00;96862.41;1700016;84;21131;-68
2022/03/17 06:22:54;;;;;;;43.53;24.73;;;;;;;0.23;85.83;96858.49;1699123;83;21026;-69
2022/03/17 06:25:23;;;;;;;37.03;20.43;;;;;;;0.25;85.46;96859.42;1698860;83;21505;-68
2022/03/17 06:27:51;;;;;;;42.80;23.23;;;;;;;0.26;85.21;96860.33;1698703;84;21027;-72
2022/03/17 06:30:21;;;;;;;43.13;25.33;;;;;;;0.35;85.34;96860.69;1698845;83;21105;-68
2022/03/17 06:32:48;;;;;;;33.33;18.43;;;;;;;0.46;85.18;96865.05;1699474;84;21042;-68
2022/03/17 06:35:19;;;;;;;36.10;19.63;;;;;;;0.47;84.34;96859.89;1699151;83;21077;-68
2022/03/17 06:37:48;;;;;;;40.10;22.13;;;;;;;0.52;84.35;96867.45;1699433;84;21077;-69
2022/03/17 06:40:17;;;;;;;40.70;22.93;;;;;;;0.47;84.61;96868.10;1699637;83;21062;-67
2022/03/17 06:42:45;;;;;;;27.77;16.03;;;;;;;0.51;84.68;96871.31;1699742;84;21078;-68
2022/03/17 06:45:12;;;;;;;51.63;28.63;;;;;;;0.57;84.34;96877.62;1699690;84;21057;-68
2022/03/17 06:47:40;;;;;;;36.27;20.97;;;;;;;0.69;84.45;96878.95;1700027;84;21117;-71
2022/03/17 06:50:10;;;;;;;41.90;25.90;;;;;;;0.68;83.90;96891.06;1699674;83;21062;-68
2022/03/17 06:52:37;;;;;;;44.67;26.83;;;;;;;0.73;83.43;96888.63;1699077;83;21057;-68
2022/03/17 06:55:05;;;;;;;40.83;21.70;;;;;;;0.81;83.63;96890.72;1696760;84;21033;-67
2022/03/17 06:57:32;;;;;;;47.30;28.23;;;;;;;0.72;83.43;96897.25;1696449;84;21440;-68
2022/03/17 06:59:59;;;;;;;53.50;31.63;;;;;;;0.71;83.26;96895.50;1696282;84;21017;-70
2022/03/17 07:02:26;;;;;;;72.07;49.23;;;;;;;0.74;83.20;96891.30;1696047;84;21055;-68
2022/03/17 07:04:53;;;;;;;41.53;24.77;;;;;;;0.85;83.13;96887.81;1695389;84;21045;-66
2022/03/17 07:07:19;;;;;;;40.40;23.10;;;;;;;0.89;83.04;96884.95;1695704;84;21083;-67
2022/03/17 07:09:46;;;;;;;47.60;29.57;;;;;;;0.90;82.98;96896.67;1695432;84;21041;-67
2022/03/17 07:12:13;;;;;;;48.77;28.20;;;;;;;0.93;82.69;96893.31;1695302;84;21642;-67
2022/03/17 07:14:40;;;;;;;51.33;30.57;;;;;;;1.07;83.18;96898.23;1695971;84;21499;-69
2022/03/17 07:17:07;;;;;;;42.20;24.17;;;;;;;1.15;82.08;96895.92;1696496;85;21050;-69
2022/03/17 07:19:35;;;;;;;43.33;24.50;;;;;;;1.07;81.83;96901.25;1695828;84;21587;-69
2022/03/17 07:22:04;;;;;;;47.93;26.87;;;;;;;1.12;81.76;96901.02;1695314;84;20989;-71
2022/03/17 07:24:31;;;;;;;38.23;22.53;;;;;;;1.28;82.35;96899.87;1696174;84;21038;-69
2022/03/17 07:26:59;;;;;;;46.03;26.53;;;;;;;1.29;81.26;96905.16;1695460;84;21049;-70
2022/03/17 07:29:28;;;;;;;44.70;25.33;;;;;;;1.37;81.39;96909.34;1696632;84;20986;-71
2022/03/17 07:31:56;;;;;;;47.10;28.93;;;;;;;1.41;81.28;96907.73;1696768;84;20967;-69
2022/03/17 07:34:24;;;;;;;43.07;26.37;;;;;;;1.56;81.43;96910.02;1696526;84;21524;-70
2022/03/17 07:36:51;;;;;;;47.77;26.57;;;;;;;1.64;81.39;96911.22;1696375;84;21056;-70
2022/03/17 07:39:18;;;;;;;47.20;26.80;;;;;;;1.94;81.28;96908.81;1695733;84;20990;-70
2022/03/17 07:41:45;;;;;;;57.47;34.70;;;;;;;2.23;81.09;96902.04;1695281;85;21140;-71
2022/03/17 07:44:13;;;;;;;48.27;27.90;;;;;;;2.45;79.75;96901.06;1696491;84;21120;-70
2022/03/17 07:46:44;;;;;;;47.35;30.12;;;;;;;2.57;79.57;96900.56;1686755;84;20985;-72
2022/03/17 07:49:16;;;;;;;52.43;29.50;;;;;;;2.50;78.14;96894.28;1695507;84;21061;-71
2022/03/17 07:51:43;;;;;;;50.00;28.77;;;;;;;2.54;78.19;96900.05;1695669;84;21068;-69
2022/03/17 07:54:10;;;;;;;60.20;29.57;;;;;;;2.57;78.65;96900.17;1697201;84;21030;-70
2022/03/17 07:56:37;;;;;;;40.80;22.37;;;;;;;2.69;78.88;96903.58;1700394;83;21097;-69
2022/03/17 07:59:04;;;;;;;41.53;24.83;;;;;;;2.94;78.76;96902.66;1700273;83;20995;-67
2022/03/17 08:01:31;;;;;;;52.57;32.10;;;;;;;3.21;77.27;96905.25;1700917;83;21521;-67
2022/03/17 08:03:58;;;;;;;42.17;26.70;;;;;;;3.58;77.61;96906.37;1699363;84;21073;-66
2022/03/17 08:06:25;;;;;;;41.23;27.33;;;;;;;3.66;73.99;96893.12;1700178;83;21053;-68
2022/03/17 08:08:53;;;;;;;42.20;26.20;;;;;;;3.68;74.50;96897.09;1700317;84;21532;-67
2022/03/17 08:11:23;;;;;;;38.27;23.83;;;;;;;3.80;75.28;96906.98;1687897;84;21120;-68
2022/03/17 08:13:48;;;;;;;37.87;24.73;;;;;;;3.89;74.33;96907.25;1676673;85;21104;-71
2022/03/17 08:16:14;;;;;;;34.63;23.03;;;;;;;3.78;71.78;96905.66;1677275;85;21084;-72
2022/03/17 08:18:42;;;;;;;42.70;23.77;;;;;;;3.89;73.49;96912.48;1677665;85;21108;-71
2022/03/17 08:21:08;;;;;;;32.00;20.87;;;;;;;3.92;71.91;96909.06;1676767;85;21119;-71
2022/03/17 08:23:35;;;;;;;43.20;24.90;;;;;;;3.90;70.49;96908.58;1676914;85;21449;-70
2022/03/17 08:26:01;;;;;;;38.47;23.97;;;;;;;4.00;71.39;96911.03;1677401;85;21096;-72
2022/03/17 08:28:29;;;;;;;35.03;24.33;;;;;;;3.92;71.54;96905.15;1677137;85;21006;-70
2022/03/17 08:30:55;;;;;;;37.57;24.63;;;;;;;4.01;71.63;96919.36;1676398;85;21111;-71
2022/03/17 08:33:23;;;;;;;38.57;24.67;;;;;;;4.03;71.24;96911.15;1677105;85;21076;-74
2022/03/17 08:35:49;;;;;;;36.00;22.13;;;;;;;4.07;71.58;96913.41;1677449;85;21029;-73
2022/03/17 08:38:16;;;;;;;37.87;24.20;;;;;;;4.12;70.58;96916.60;1677162;85;21566;-74
2022/03/17 08:40:43;;;;;;;38.63;25.67;;;;;;;4.15;70.57;96917.11;1677080;85;21026;-73
2022/03/17 08:43:14;;;;;;;41.10;24.53;;;;;;;4.09;70.36;96915.22;1677080;85;21084;-74
2022/03/17 08:51:12;;;;;;;35.27;21.70;;;;;;;4.41;71.22;96923.06;1677061;85;21093;-71
2022/03/17 08:53:39;;;;;;;36.30;22.50;;;;;;;4.82;70.22;96920.63;1702138;84;21599;-76
2022/03/17 08:56:06;;;;;;;46.80;28.43;;;;;;;4.95;68.39;96924.42;1706663;84;21560;-77
2022/03/17 08:58:38;;;;;;;37.13;25.63;;;;;;;5.06;67.67;96916.39;1706725;84;21540;-77
2022/03/17 09:01:01;;;;;;;37.20;24.80;;;;;;;5.13;67.24;96919.63;1706983;83;21079;-74
2022/03/17 09:03:30;;;;;;;38.37;24.33;;;;;;;5.18;67.48;96918.00;1706277;84;21626;-71
2022/03/17 09:06:02;;;;;;;45.40;29.53;;;;;;;5.15;67.50;96922.28;1706719;84;21043;-76
2022/03/17 09:08:27;;;;;;;44.10;26.97;;;;;;;5.19;68.30;96918.48;1706578;83;21035;-75
2022/03/17 09:10:56;;;;;;;44.00;27.90;;;;;;;5.21;67.44;96924.61;1706637;84;21628;-75
2022/03/17 09:13:25;;;;;;;47.23;27.67;;;;;;;5.25;66.36;96917.73;1706179;84;21556;-74
2022/03/17 09:15:54;;;;;;;38.73;25.27;;;;;;;5.33;67.66;96915.29;1706835;84;21003;-69
2022/03/17 09:18:23;;;;;;;38.33;22.93;;;;;;;5.35;65.96;96921.45;1706867;84;21074;-69
2022/03/17 09:20:50;;;;;;;53.43;37.53;;;;;;;5.48;66.30;96919.98;1706700;84;21027;-67
2022/03/17 09:23:18;;;;;;;37.50;22.73;;;;;;;5.58;65.77;96920.22;1706292;84;21028;-70
2022/03/17 09:25:45;;;;;;;36.63;23.67;;;;;;;5.64;64.79;96922.08;1706605;84;21027;-69
2022/03/17 09:28:13;;;;;;;35.17;21.47;;;;;;;5.74;65.74;96929.72;1706810;84;21074;-69
2022/03/17 09:30:41;;;;;;;42.93;26.87;;;;;;;5.89;65.75;96924.80;1706823;84;21529;-68
2022/03/17 09:33:07;;;;;;;33.77;21.70;;;;;;;6.14;67.18;96928.84;1700102;83;21003;-68
2022/03/17 09:35:34;;;;;;;57.97;44.10;;;;;;;6.44;65.22;96922.43;1706462;83;21038;-69
2022/03/17 09:38:05;;;;;;;29.67;20.03;;;;;;;6.85;63.80;96927.09;1678445;85;21034;-68
2022/03/17 09:40:35;;;;;;;34.67;22.50;;;;;;;7.21;61.00;96927.71;1693886;85;21049;-67
2022/03/17 09:43:21;;;;;;;39.37;25.23;;;;;;;7.36;61.44;96931.89;1693205;85;21082;-68
2022/03/17 09:45:54;;;;;;;30.83;21.60;;;;;;;7.60;60.20;96930.04;1706451;84;21090;-70
2022/03/17 09:48:23;;;;;;;29.72;19.30;;;;;;;7.80;58.45;96928.56;1693476;85;21107;-69
2022/03/17 09:51:00;;;;;;;29.70;18.93;;;;;;;7.94;58.89;96927.45;1663794;85;21172;-68
2022/03/17 09:53:31;;;;;;;30.63;19.60;;;;;;;7.90;59.47;96930.02;1692095;84;21480;-70
2022/03/17 09:55:57;;;;;;;31.50;20.60;;;;;;;8.04;57.35;96931.09;1705445;84;21089;-72
2022/03/17 09:58:24;;;;;;;28.17;19.20;;;;;;;8.19;57.16;96933.91;1719646;83;21051;-72
2022/03/17 10:00:53;;;;;;;65.93;44.23;;;;;;;8.12;55.31;96934.69;1708696;84;21108;-71
2022/03/17 10:03:25;;;;;;;31.17;20.80;;;;;;;7.96;54.84;96935.34;1719931;83;21066;-69
2022/03/17 10:05:54;;;;;;;31.05;20.00;;;;;;;8.00;55.36;96934.53;1709445;84;21053;-71
2022/03/17 10:08:23;;;;;;;29.83;21.27;;;;;;;8.01;54.93;96931.94;1719989;83;21050;-69
2022/03/17 10:10:52;;;;;;;31.33;20.70;;;;;;;7.94;54.50;96942.34;1710384;84;21017;-70
2022/03/17 10:13:22;;;;;;;32.93;21.43;;;;;;;7.72;54.81;96951.67;1719741;83;21030;-69
2022/03/17 10:16:17;;;;;;;29.30;19.03;;;;;;;7.72;56.72;96955.17;1710157;84;21579;-70
2022/03/17 10:18:45;;;;;;;31.55;21.60;;;;;;;7.95;55.01;96941.47;1720881;83;21063;-69
2022/03/17 10:21:25;;;;;;;30.10;18.60;;;;;;;8.10;55.17;96940.80;1710612;84;21053;-69
2022/03/17 10:23:59;;;;;;;29.17;17.57;;;;;;;8.41;56.62;96946.01;1720562;83;21042;-69
2022/03/17 10:26:54;;;;;;;27.80;18.07;;;;;;;8.69;54.47;96942.36;1710964;84;21026;-69
2022/03/17 10:29:20;;;;;;;26.00;17.87;;;;;;;8.79;52.11;96937.64;1719253;83;21544;-69
2022/03/17 10:32:05;;;;;;;26.87;17.50;;;;;;;8.71;52.52;96938.00;1710741;84;20994;-66
2022/03/17 10:34:37;;;;;;;24.53;15.13;;;;;;;8.52;52.23;96931.25;1720384;83;21065;-67
2022/03/17 10:37:10;;;;;;;20.43;15.47;;;;;;;8.30;50.58;96932.70;1710540;84;21042;-67
2022/03/17 10:39:44;;;;;;;25.10;16.30;;;;;;;8.39;51.40;96934.17;1720546;83;21039;-66
2022/03/17 10:42:17;;;;;;;26.03;17.40;;;;;;;8.48;51.51;96934.70;1690121;85;21031;-67
2022/03/17 10:44:51;;;;;;;28.77;17.07;;;;;;;8.91;50.95;96926.36;1710661;84;21026;-67
2022/03/17 10:47:27;;;;;;;26.70;16.47;;;;;;;9.20;50.11;96922.23;1719333;83;21046;-68
2022/03/17 10:50:15;;;;;;;23.23;14.67;;;;;;;9.59;52.12;96922.51;1709916;84;21013;-67
2022/03/17 10:52:58;;;;;;;23.30;16.30;;;;;;;9.66;46.26;96913.77;1719910;83;21035;-68
2022/03/17 10:55:34;;;;;;;23.83;15.47;;;;;;;9.71;49.05;96907.66;1684809;85;21074;-67
2022/03/17 10:58:16;;;;;;;24.50;17.17;;;;;;;9.84;47.33;96906.41;1694963;85;21058;-66
2022/03/17 11:00:52;;;;;;;22.80;15.93;;;;;;;9.93;48.92;96908.66;1695364;84;21545;-67
2022/03/17 11:03:22;;;;;;;24.53;18.43;;;;;;;10.27;47.11;96903.95;1695467;85;21019;-66
2022/03/17 11:05:50;;;;;;;20.47;15.13;;;;;;;10.40;47.95;96900.51;1695305;85;21031;-66
2022/03/17 11:08:20;;;;;;;22.20;14.83;;;;;;;10.22;48.24;96900.42;1707968;83;21007;-66
2022/03/17 11:10:47;;;;;;;20.90;14.23;;;;;;;10.08;48.77;96913.53;1707352;84;21549;-66
2022/03/17 11:13:14;;;;;;;21.73;15.10;;;;;;;10.06;46.27;96911.36;1707822;84;21043;-67
2022/03/17 11:15:57;;;;;;;20.43;13.83;;;;;;;10.23;45.99;96907.03;1708029;84;21082;-67
2022/03/17 11:18:25;;;;;;;;;;;;;;;10.09;42.98;96902.13;1710576;84;21059;-66
2022/03/17 11:21:21;;;;;;;24.02;14.25;;;;;;;10.01;45.42;96903.86;1695402;85;20409;-68
2022/03/17 11:24:11;;;;;;;24.33;15.23;;;;;;;9.78;45.32;96904.63;1695246;85;21078;-67
2022/03/17 11:26:43;;;;;;;20.60;14.27;;;;;;;9.77;46.18;96905.92;1691129;85;21024;-67
2022/03/17 11:29:18;;;;;;;25.70;15.17;;;;;;;9.73;47.24;96919.09;1707840;83;21014;-67
2022/03/17 11:32:01;;;;;;;22.90;16.33;;;;;;;9.64;46.59;96906.29;1695513;85;21054;-66
2022/03/17 11:34:46;;;;;;;20.92;14.23;;;;;;;9.39;43.97;96911.83;1708159;83;21497;-66
2022/03/17 11:37:26;;;;;;;21.57;14.13;;;;;;;9.08;45.24;96914.23;1695394;85;21058;-66
2022/03/17 11:40:09;;;;;;;19.43;13.17;;;;;;;8.95;44.51;96914.56;1707947;84;21508;-66
2022/03/17 11:42:41;;;;;;;;;;;;;;;9.25;47.43;96913.06;1697852;84;21002;-67
2022/03/17 11:45:19;;;;;;;20.67;13.90;;;;;;;9.33;45.52;96907.41;1695391;84;20405;-66